»·PEaware :: AAL343 KMFR-KBOI

AAL343 :: KMFR-KBOI

FLIGHT INFORMATION

Flight Status: Arrived
Operator:
American Airlines
More flights by this operator :: More flights under this callsign
Pilot: James W. (12414)
Aircraft: BOEING 737-800
(B738)
More flights by this aircraft type
Origin: KMFR Rogue Valley Intl-Medford
United States
Destination: KBOI Boise Air Terminal/Gowen
United States
More flights between these airports :: More routes between these airports
Route: +JKSN1 OED V122 LMT
File this flight plan on PilotEdge
Remarks:
Altitude:
(Current/Filed)
270ft
Speed:
(Current/Filed)
500kts
Departed: 31-Aug-18 06:23 PM
Arrived: 31-Aug-18 07:17 PM
Distance/Time
Traveled:
301nm/0:54
Distance/Time
To Go:
Arrived

Flight Plot

Page will automatically refresh every two minutes.

Flight plan parsing failed; only flown route is shown


Map Options




Map Legend


Flown Route
Filed Route
Departure Airport
Arrival Airport
Navaid (VOR, NDB)
Fix

Horizontal Profiles

Position Reports

Time Latitude Longitude Heading Altitude Ground
Speed
31-Aug-18 17:56 42.368502 -122.873188 248 1341ft 0kts
31-Aug-18 17:57 42.368502 -122.873188 248 1341ft 0kts
31-Aug-18 17:58 42.368502 -122.873188 248 1341ft 0kts
31-Aug-18 17:59 42.368502 -122.873188 248 1341ft 0kts
31-Aug-18 18:00 42.368502 -122.873188 248 1341ft 0kts
31-Aug-18 18:01 42.368502 -122.873188 248 1341ft 0kts
31-Aug-18 18:02 42.368502 -122.873188 248 1341ft 0kts
31-Aug-18 18:03 42.368502 -122.873188 248 1341ft 0kts
31-Aug-18 18:04 42.368502 -122.873188 248 1341ft 0kts
31-Aug-18 18:05 42.368502 -122.873188 248 1341ft 0kts
31-Aug-18 18:06 42.368502 -122.873188 248 1341ft 0kts
31-Aug-18 18:07 42.368502 -122.873188 248 1341ft 0kts
31-Aug-18 18:08 42.368502 -122.873188 248 1341ft 0kts
31-Aug-18 18:09 42.368502 -122.873188 248 1341ft 0kts
31-Aug-18 18:10 42.368502 -122.873188 248 1341ft 0kts
31-Aug-18 18:11 42.368502 -122.873188 248 1341ft 0kts
31-Aug-18 18:12 42.368502 -122.873188 248 1341ft 0kts
31-Aug-18 18:13 42.368502 -122.873188 248 1341ft 0kts
31-Aug-18 18:14 42.368502 -122.873188 248 1341ft 0kts
31-Aug-18 18:15 42.368502 -122.873188 248 1341ft 0kts
31-Aug-18 18:16 42.368502 -122.873188 248 1341ft 0kts
31-Aug-18 18:17 42.368502 -122.873188 248 1341ft 0kts
31-Aug-18 18:18 42.368697 -122.872526 256 1341ft 2kts
31-Aug-18 18:19 42.368525 -122.872172 333 1341ft 0kts
31-Aug-18 18:20 42.368543 -122.872184 333 1341ft 0kts
31-Aug-18 18:21 42.375321 -122.875099 337 1341ft 33kts
31-Aug-18 18:22 42.384050 -122.879678 339 1341ft 33kts
31-Aug-18 18:23 42.385656 -122.878862 157 1341ft 12kts
31-Aug-18 18:24 42.357488 -122.864397 164 2352ft 186kts
31-Aug-18 18:25 42.303036 -122.875309 233 4349ft 249kts
31-Aug-18 18:26 42.310906 -122.961602 320 6430ft 270kts
31-Aug-18 18:27 42.383902 -122.961743 23 8496ft 289kts
31-Aug-18 18:28 42.458122 -122.919337 21 10481ft 298kts
31-Aug-18 18:29 42.513307 -122.844833 89 12533ft 310kts
31-Aug-18 18:30 42.476392 -122.739645 122 14591ft 320kts
31-Aug-18 18:31 42.429453 -122.635360 115 16589ft 332kts
31-Aug-18 18:32 42.438563 -122.511092 73 18676ft 360kts
31-Aug-18 18:33 42.467191 -122.369911 73 19888ft 423kts
31-Aug-18 18:34 42.499270 -122.210648 73 21867ft 454kts
31-Aug-18 18:35 42.532642 -122.043570 73 24156ft 470kts
31-Aug-18 18:36 42.566820 -121.870969 73 25620ft 480kts
31-Aug-18 18:37 42.600969 -121.696971 73 26467ft 485kts
31-Aug-18 18:38 42.635269 -121.520552 73 27118ft 482kts
31-Aug-18 18:39 42.668724 -121.346933 73 27120ft 482kts
31-Aug-18 18:40 42.702085 -121.172424 73 27118ft 482kts
31-Aug-18 18:41 42.735208 -120.997520 73 27124ft 479kts
31-Aug-18 18:42 42.768030 -120.822613 73 27127ft 478kts
31-Aug-18 18:43 42.800527 -120.647850 73 27128ft 478kts
31-Aug-18 18:44 42.832824 -120.472479 73 27128ft 478kts
31-Aug-18 18:45 42.864415 -120.299362 74 27130ft 483kts
31-Aug-18 18:46 42.897095 -120.118812 74 27129ft 501kts
31-Aug-18 18:47 42.930056 -119.934731 74 27124ft 502kts
31-Aug-18 18:48 42.962758 -119.750188 74 27115ft 502kts
31-Aug-18 18:49 42.995139 -119.565497 74 27103ft 503kts
31-Aug-18 18:50 43.027378 -119.379692 74 27101ft 504kts
31-Aug-18 18:51 43.058928 -119.196140 74 27098ft 504kts
31-Aug-18 18:52 43.090525 -119.010507 74 27098ft 504kts
31-Aug-18 18:53 43.121476 -118.826584 75 25792ft 495kts
31-Aug-18 18:54 43.150875 -118.649774 75 24251ft 448kts
31-Aug-18 18:55 43.177739 -118.486698 75 22759ft 437kts
31-Aug-18 18:56 43.202008 -118.338054 76 21377ft 427kts
31-Aug-18 18:57 43.221699 -118.216672 76 20216ft 420kts
31-Aug-18 18:58 43.246500 -118.062531 76 18717ft 411kts
31-Aug-18 18:59 43.270497 -117.911982 76 17225ft 402kts
31-Aug-18 19:00 43.293802 -117.764432 76 15731ft 393kts
31-Aug-18 19:01 43.316453 -117.619731 76 14235ft 384kts
31-Aug-18 19:02 43.338375 -117.478444 76 12742ft 375kts
31-Aug-18 19:03 43.359297 -117.342428 77 11272ft 366kts
31-Aug-18 19:04 43.379992 -117.206876 77 10999ft 364kts
31-Aug-18 19:05 43.400572 -117.070948 77 10999ft 364kts
31-Aug-18 19:06 43.420959 -116.935112 77 11000ft 364kts
31-Aug-18 19:07 43.441006 -116.800293 77 10992ft 361kts
31-Aug-18 19:08 43.460936 -116.665205 77 10991ft 361kts
31-Aug-18 19:09 43.478769 -116.542995 77 10984ft 303kts
31-Aug-18 19:10 43.495323 -116.429159 77 10991ft 304kts
31-Aug-18 19:11 43.511331 -116.318111 77 9775ft 299kts
31-Aug-18 19:12 43.509489 -116.208256 112 8493ft 293kts
31-Aug-18 19:13 43.477763 -116.106628 106 7312ft 275kts
31-Aug-18 19:14 43.509271 -116.050361 339 5947ft 196kts
31-Aug-18 19:15 43.528952 -116.109100 279 4626ft 156kts
31-Aug-18 19:16 43.541974 -116.160838 298 3625ft 145kts
31-Aug-18 19:17 43.559018 -116.210366 296 2905ft 144kts
31-Aug-18 19:18 43.564438 -116.224200 3 2879ft 17kts
31-Aug-18 19:19 43.566674 -116.221201 43 2879ft 10kts

Navigation Log

Ident Type
Flight plan parsing failed, navigation log unavailable